Time;durP1;ratioP1;P1;durP2;ratioP2;P2;SDS_P1;SDS_P2;PMS_P1;PMS_P2;Temp;Humidity;BMP_temperature;BMP_pressure;BME280_temperature;BME280_humidity;BME280_pressure;Samples;Min_cycle;Max_cycle;Signal;HPM_P1;HPM_P2
2021/01/25 00:00:11;;;;;;;43.00;19.37;;;;;;;4.57;100.00;98095.76;1793794;80;21433;-72
2021/01/25 00:02:41;;;;;;;46.73;19.07;;;;;;;4.57;100.00;98095.76;1793740;80;21649;-72
2021/01/25 00:05:11;;;;;;;34.25;16.90;;;;;;;4.55;100.00;98089.83;1793806;80;20969;-72
2021/01/25 00:07:40;;;;;;;43.70;19.12;;;;;;;4.57;100.00;98092.23;1793790;80;20972;-72
2021/01/25 00:10:09;;;;;;;37.58;17.87;;;;;;;4.55;100.00;98089.03;1793812;80;20989;-72
2021/01/25 00:12:37;;;;;;;49.27;19.67;;;;;;;4.53;100.00;98079.83;1793787;80;21725;-72
2021/01/25 00:15:06;;;;;;;35.90;18.80;;;;;;;4.52;100.00;98074.15;1793732;79;21056;-71
2021/01/25 00:17:35;;;;;;;36.85;17.45;;;;;;;4.51;100.00;98069.02;1793881;80;21440;-72
2021/01/25 00:20:04;;;;;;;36.08;18.50;;;;;;;4.49;100.00;98062.54;1793774;80;20945;-72
2021/01/25 00:22:32;;;;;;;40.33;18.85;;;;;;;4.50;100.00;98067.42;1793758;80;21492;-72
2021/01/25 00:24:59;;;;;;;42.78;18.48;;;;;;;4.48;100.00;98070.45;1793856;80;21634;-72
2021/01/25 00:27:27;;;;;;;42.45;18.92;;;;;;;4.45;100.00;98069.72;1793793;80;20977;-72
2021/01/25 00:29:54;;;;;;;41.80;17.65;;;;;;;4.40;100.00;98069.04;1793884;80;21480;-72
2021/01/25 00:32:22;;;;;;;41.85;16.07;;;;;;;4.40;100.00;98069.04;1793763;79;20969;-72
2021/01/25 00:34:49;;;;;;;30.85;15.90;;;;;;;4.33;100.00;98061.33;1793803;80;21124;-72
2021/01/25 00:37:16;;;;;;;33.90;16.85;;;;;;;4.33;100.00;98061.33;1793853;80;21930;-73
2021/01/25 00:39:44;;;;;;;45.78;16.40;;;;;;;4.31;100.00;98067.63;1793716;79;20940;-72
2021/01/25 00:42:11;;;;;;;38.73;16.75;;;;;;;4.26;100.00;98049.55;1793750;80;21004;-72
2021/01/25 00:44:39;;;;;;;45.80;16.10;;;;;;;4.24;100.00;98057.75;1793789;80;21108;-70
2021/01/25 00:47:06;;;;;;;37.30;16.60;;;;;;;4.19;100.00;98051.89;1791820;80;21546;-69
2021/01/25 00:49:34;;;;;;;38.80;15.65;;;;;;;4.18;100.00;98046.22;1791839;80;21119;-70
2021/01/25 00:52:02;;;;;;;56.70;16.45;;;;;;;4.18;100.00;98043.50;1791719;80;21491;-70
2021/01/25 00:54:29;;;;;;;48.25;17.37;;;;;;;4.19;100.00;98042.95;1791789;78;21016;-71
2021/01/25 00:56:57;;;;;;;28.30;15.68;;;;;;;4.19;100.00;98038.31;1791796;78;20949;-70
2021/01/25 00:59:24;;;;;;;31.93;16.17;;;;;;;4.20;100.00;98041.83;1791823;80;21040;-70
2021/01/25 01:01:52;;;;;;;30.08;16.15;;;;;;;4.20;100.00;98054.86;1791795;80;21374;-71
2021/01/25 01:04:19;;;;;;;77.55;18.25;;;;;;;4.21;100.00;98044.23;1791819;80;21543;-71
2021/01/25 01:06:48;;;;;;;39.80;15.72;;;;;;;4.20;100.00;98045.91;1791803;80;20988;-71
2021/01/25 01:09:15;;;;;;;41.02;16.73;;;;;;;4.19;100.00;98045.66;1791754;79;21017;-71
2021/01/25 01:11:44;;;;;;;46.10;16.93;;;;;;;4.16;100.00;98044.92;1791934;80;21448;-70
2021/01/25 01:14:11;;;;;;;38.30;15.20;;;;;;;4.12;100.00;98045.30;1791827;80;21399;-70
2021/01/25 01:16:38;;;;;;;66.37;17.42;;;;;;;4.09;100.00;98041.84;1791743;80;20984;-70
2021/01/25 01:19:06;;;;;;;33.85;15.03;;;;;;;4.09;100.00;98041.84;1791802;80;21048;-71
2021/01/25 01:21:34;;;;;;;34.83;14.93;;;;;;;4.08;100.00;98040.23;1791660;80;20933;-71
2021/01/25 01:24:03;;;;;;;39.50;15.30;;;;;;;4.08;100.00;98040.23;1791891;80;21118;-71
2021/01/25 01:26:31;;;;;;;53.05;16.97;;;;;;;4.05;100.00;98038.14;1791825;80;21422;-71
2021/01/25 01:28:58;;;;;;;40.00;16.65;;;;;;;4.04;100.00;98037.92;1791720;80;21566;-71
2021/01/25 01:31:26;;;;;;;40.03;17.42;;;;;;;4.04;100.00;98037.37;1791787;80;20981;-71
2021/01/25 01:33:53;;;;;;;36.80;16.05;;;;;;;4.07;100.00;98037.27;1791745;80;20922;-71
2021/01/25 01:36:21;;;;;;;41.98;15.28;;;;;;;4.04;100.00;98031.94;1791889;80;21598;-70
2021/01/25 01:38:48;;;;;;;51.68;16.12;;;;;;;4.03;100.00;98033.60;1791900;80;21424;-71
2021/01/25 01:41:16;;;;;;;44.40;16.35;;;;;;;4.00;100.00;98028.23;1791703;80;21154;-71
2021/01/25 01:43:43;;;;;;;46.68;15.65;;;;;;;4.00;100.00;98034.22;1791793;80;20949;-71
2021/01/25 01:46:10;;;;;;;34.55;14.87;;;;;;;3.97;100.00;98031.56;1791630;80;21060;-71
2021/01/25 01:48:38;;;;;;;28.90;14.70;;;;;;;3.96;100.00;98034.84;1791730;80;21139;-71
2021/01/25 01:51:06;;;;;;;40.85;17.60;;;;;;;3.93;100.00;98044.16;1769710;80;21359;-72
2021/01/25 01:53:33;;;;;;;33.05;15.43;;;;;;;3.93;100.00;98044.16;1791700;80;20929;-71
2021/01/25 01:56:01;;;;;;;34.88;15.40;;;;;;;3.91;100.00;98039.03;1791790;80;20918;-71
2021/01/25 01:58:29;;;;;;;41.10;15.00;;;;;;;3.91;100.00;98038.23;1791777;80;21526;-71
2021/01/25 02:00:57;;;;;;;40.05;15.05;;;;;;;3.90;100.00;98042.86;1791750;80;20965;-70
2021/01/25 02:03:24;;;;;;;36.77;15.58;;;;;;;3.90;100.00;98044.22;1791857;79;22093;-70
2021/01/25 02:05:52;;;;;;;28.83;16.30;;;;;;;3.90;100.00;98042.86;1791787;80;20902;-71
2021/01/25 02:08:21;;;;;;;39.92;15.75;;;;;;;3.91;100.00;98051.80;1791754;80;20989;-70
2021/01/25 02:10:50;;;;;;;34.98;15.18;;;;;;;3.91;100.00;98051.25;1791845;79;21532;-70
2021/01/25 02:13:18;;;;;;;31.07;15.15;;;;;;;3.92;100.00;98046.06;1791804;79;21015;-71
2021/01/25 02:15:46;;;;;;;41.53;16.35;;;;;;;3.90;100.00;98045.58;1769705;80;22117;-70
2021/01/25 02:18:13;;;;;;;41.02;16.60;;;;;;;3.91;100.00;98051.25;1791741;80;20945;-70
2021/01/25 02:20:42;;;;;;;34.88;16.10;;;;;;;3.90;100.00;98052.36;1791816;80;21476;-71
2021/01/25 02:23:41;;;;;;;46.75;16.67;;;;;;;3.91;100.00;98059.95;1791685;80;21012;-71
2021/01/25 02:26:23;;;;;;;28.87;14.75;;;;;;;3.88;100.00;98062.73;1791672;80;20949;-72
2021/01/25 02:28:50;;;;;;;43.40;15.68;;;;;;;3.88;100.00;98062.73;1791916;79;21366;-72
2021/01/25 02:31:18;;;;;;;31.85;14.15;;;;;;;3.89;100.00;98056.19;1791700;80;21099;-72
2021/01/25 02:33:49;;;;;;;28.80;14.45;;;;;;;3.90;100.00;98054.27;1791827;80;20930;-72
2021/01/25 02:36:16;;;;;;;32.20;14.80;;;;;;;3.88;100.00;98054.58;1769903;80;21020;-72
2021/01/25 02:38:47;;;;;;;40.17;15.75;;;;;;;3.86;100.00;98058.16;1791906;80;20913;-73
2021/01/25 02:41:15;;;;;;;35.92;15.70;;;;;;;3.86;100.00;98062.78;1792035;80;21467;-72
2021/01/25 02:43:42;;;;;;;29.27;15.98;;;;;;;3.85;100.00;98055.75;1791833;80;20945;-71
2021/01/25 02:46:11;;;;;;;40.75;16.20;;;;;;;3.83;100.00;98058.77;1791851;80;20941;-71
2021/01/25 02:48:38;;;;;;;38.92;15.98;;;;;;;3.81;100.00;98058.28;1791911;80;20985;-72
2021/01/25 02:51:06;;;;;;;33.15;15.00;;;;;;;3.80;100.00;98055.31;1791878;80;21397;-72
2021/01/25 02:53:33;;;;;;;38.15;15.05;;;;;;;3.80;100.00;98059.94;1791925;80;21189;-71
2021/01/25 02:56:01;;;;;;;38.02;15.45;;;;;;;3.78;100.00;98052.66;1791825;78;21059;-71
2021/01/25 02:58:28;;;;;;;34.73;16.07;;;;;;;3.77;100.00;98041.00;1791891;80;21610;-72
2021/01/25 03:00:56;;;;;;;52.75;16.80;;;;;;;3.78;100.00;98040.45;1791865;80;21175;-71
2021/01/25 03:03:23;;;;;;;33.42;17.23;;;;;;;3.75;100.00;98027.48;1791948;80;21046;-71
2021/01/25 03:05:52;;;;;;;39.00;16.40;;;;;;;3.74;100.00;98022.62;1791884;80;22368;-71
2021/01/25 03:08:19;;;;;;;38.85;18.48;;;;;;;3.74;100.00;98022.62;1791870;79;20937;-72
2021/01/25 03:10:47;;;;;;;34.35;17.40;;;;;;;3.73;100.00;98021.56;1791882;80;20992;-71
2021/01/25 03:13:15;;;;;;;35.00;16.57;;;;;;;3.73;100.00;98024.28;1791962;80;21467;-72
2021/01/25 03:15:42;;;;;;;48.98;17.92;;;;;;;3.74;100.00;98021.81;1791969;80;21052;-72
2021/01/25 03:18:10;;;;;;;36.05;16.97;;;;;;;3.72;100.00;98019.41;1791883;80;21159;-72
2021/01/25 03:20:38;;;;;;;38.17;17.85;;;;;;;3.72;100.00;98019.41;1791828;80;21512;-72
2021/01/25 03:23:05;;;;;;;42.67;19.32;;;;;;;3.73;100.00;98014.78;1791820;80;20929;-70
2021/01/25 03:25:33;;;;;;;35.17;19.85;;;;;;;3.74;100.00;98013.12;1791885;80;20929;-71
2021/01/25 03:28:00;;;;;;;42.95;21.00;;;;;;;3.74;100.00;98013.12;1791894;80;20969;-71
2021/01/25 03:30:28;;;;;;;39.13;20.60;;;;;;;3.75;100.00;98012.56;1791954;80;22515;-71
2021/01/25 03:32:56;;;;;;;38.25;19.50;;;;;;;3.74;100.00;98012.31;1791794;80;21163;-72
2021/01/25 03:35:24;;;;;;;39.75;20.72;;;;;;;3.74;100.00;98012.31;1791881;80;20953;-72
2021/01/25 03:37:51;;;;;;;36.83;19.70;;;;;;;3.74;100.00;98024.53;1791865;80;20918;-73
2021/01/25 03:40:18;;;;;;;39.88;20.52;;;;;;;3.73;100.00;98023.72;1791984;80;21127;-72
2021/01/25 03:42:45;;;;;;;34.40;19.60;;;;;;;3.71;100.00;98030.02;1791843;80;21372;-71
2021/01/25 03:45:15;;;;;;;34.05;19.15;;;;;;;3.69;100.00;98024.09;1791767;80;20933;-71
2021/01/25 03:47:42;;;;;;;37.08;18.12;;;;;;;3.66;100.00;98023.34;1791826;80;21052;-71
2021/01/25 03:50:12;;;;;;;41.92;19.98;;;;;;;3.63;100.00;98022.05;1792021;80;21550;-70
2021/01/25 03:52:39;;;;;;;38.42;20.15;;;;;;;3.61;100.00;98019.40;1791876;80;21147;-71
2021/01/25 03:55:09;;;;;;;35.20;19.10;;;;;;;3.59;100.00;98012.12;1791857;78;21579;-71
2021/01/25 03:57:37;;;;;;;35.15;19.32;;;;;;;3.59;100.00;98014.28;1791788;80;20996;-72
2021/01/25 04:00:07;;;;;;;30.35;18.45;;;;;;;3.62;100.00;98015.58;1791833;80;21033;-72
2021/01/25 04:02:36;;;;;;;39.73;19.57;;;;;;;3.60;100.00;98023.22;1792105;80;21016;-71
2021/01/25 04:05:04;;;;;;;37.08;19.70;;;;;;;3.58;100.00;98022.17;1791959;80;20917;-71
2021/01/25 04:07:32;;;;;;;34.63;19.25;;;;;;;3.56;100.00;98024.39;1791868;80;21480;-71
2021/01/25 04:09:59;;;;;;;32.75;18.20;;;;;;;3.55;100.00;98011.93;1791875;80;21006;-71
2021/01/25 04:12:27;;;;;;;30.43;17.92;;;;;;;3.58;100.00;98013.23;1791788;80;21008;-70
2021/01/25 04:14:55;;;;;;;31.25;17.65;;;;;;;3.58;100.00;98009.16;1791831;80;20921;-71
2021/01/25 04:17:23;;;;;;;37.98;19.00;;;;;;;3.58;100.00;98007.25;1791972;80;21464;-71
2021/01/25 04:19:51;;;;;;;31.12;17.12;;;;;;;3.60;100.00;98012.37;1791851;80;21504;-72
2021/01/25 04:22:19;;;;;;;30.52;17.50;;;;;;;3.62;100.00;98016.93;1791813;80;21126;-71
2021/01/25 04:24:46;;;;;;;31.45;18.02;;;;;;;3.62;100.00;98016.93;1791791;80;21017;-72
2021/01/25 04:27:13;;;;;;;32.35;16.05;;;;;;;3.62;100.00;98009.59;1791900;80;21103;-72
2021/01/25 04:29:41;;;;;;;29.92;17.27;;;;;;;3.62;100.00;98004.72;1791847;80;21064;-72
2021/01/25 04:32:11;;;;;;;28.60;17.15;;;;;;;3.64;100.00;98003.30;1785956;78;21190;-72
2021/01/25 04:34:39;;;;;;;29.40;17.60;;;;;;;3.66;100.00;98005.71;1796818;79;20989;-72
2021/01/25 04:37:06;;;;;;;32.65;18.20;;;;;;;3.65;100.00;98007.62;1796963;79;21146;-72
2021/01/25 04:39:33;;;;;;;29.18;16.93;;;;;;;3.65;100.00;97998.13;1729774;83;20931;-71
2021/01/25 04:42:01;;;;;;;28.95;16.65;;;;;;;3.64;100.00;97997.88;1742647;82;20962;-71
2021/01/25 04:44:28;;;;;;;28.23;17.20;;;;;;;3.62;100.00;97997.38;1761638;81;21771;-71
2021/01/25 04:46:55;;;;;;;27.77;16.87;;;;;;;3.63;100.00;97994.11;1754328;81;21513;-71
2021/01/25 04:49:23;;;;;;;26.95;16.17;;;;;;;3.63;100.00;98000.34;1699872;82;21094;-71
2021/01/25 04:51:50;;;;;;;28.92;16.20;;;;;;;3.62;100.00;97997.38;1734463;82;20994;-72
2021/01/25 04:54:17;;;;;;;30.15;17.55;;;;;;;3.63;100.00;97994.11;1734501;82;21065;-71
2021/01/25 04:56:45;;;;;;;29.77;16.00;;;;;;;3.64;100.00;98001.14;1734423;82;21410;-71
2021/01/25 04:59:13;;;;;;;28.42;17.55;;;;;;;3.65;100.00;97997.32;1734528;82;21517;-72
2021/01/25 05:01:40;;;;;;;29.32;16.95;;;;;;;3.65;100.00;97983.20;1734461;82;21105;-72
2021/01/25 05:04:08;;;;;;;30.05;15.30;;;;;;;3.67;100.00;97990.23;1734474;82;21022;-72
2021/01/25 05:06:36;;;;;;;27.62;16.70;;;;;;;3.66;100.00;97989.42;1734397;82;21073;-71
2021/01/25 05:09:04;;;;;;;26.55;16.65;;;;;;;3.68;100.00;97983.14;1734518;82;21470;-71
2021/01/25 05:11:31;;;;;;;28.10;16.45;;;;;;;3.70;100.00;97976.84;1734552;82;21497;-71
2021/01/25 05:14:05;;;;;;;25.08;15.70;;;;;;;3.72;100.00;97985.48;1734579;82;21529;-71
2021/01/25 05:16:33;;;;;;;30.72;18.02;;;;;;;3.71;100.00;97992.02;1734535;82;20934;-71
2021/01/25 05:19:04;;;;;;;28.20;16.12;;;;;;;3.71;100.00;97997.45;1734494;82;21157;-70
2021/01/25 05:21:46;;;;;;;28.35;15.70;;;;;;;3.71;100.00;98000.16;1734504;82;21449;-71
2021/01/25 05:24:14;;;;;;;28.65;16.97;;;;;;;3.71;100.00;97999.36;1734619;82;25193;-72
2021/01/25 05:27:01;;;;;;;29.75;16.27;;;;;;;3.71;100.00;97982.52;1734503;82;21479;-72
2021/01/25 05:29:28;;;;;;;26.15;15.10;;;;;;;3.74;100.00;97991.96;1734449;82;21121;-72
2021/01/25 05:31:57;;;;;;;28.52;14.98;;;;;;;3.72;100.00;97994.98;1734618;82;21175;-71
2021/01/25 05:34:25;;;;;;;27.93;16.00;;;;;;;3.75;100.00;98003.86;1734610;82;21191;-72
2021/01/25 05:36:52;;;;;;;25.08;15.05;;;;;;;3.76;100.00;98006.02;1734262;82;21489;-73
2021/01/25 05:39:20;;;;;;;24.57;14.30;;;;;;;3.76;100.00;98006.02;1732947;82;21203;-73
2021/01/25 05:41:56;;;;;;;24.25;14.20;;;;;;;3.79;100.00;98014.35;1732879;82;21042;-72
2021/01/25 05:44:23;;;;;;;23.15;13.08;;;;;;;3.79;100.00;98005.41;1732915;82;21679;-75
2021/01/25 05:46:50;;;;;;;25.12;14.93;;;;;;;3.80;100.00;97992.08;1732931;82;21661;-74
2021/01/25 05:49:27;;;;;;;22.58;13.38;;;;;;;3.78;100.00;97997.02;1712380;82;21153;-73
2021/01/25 05:51:54;;;;;;;22.95;14.23;;;;;;;3.77;100.00;97986.72;1733121;82;21198;-73
2021/01/25 05:54:22;;;;;;;21.77;12.93;;;;;;;3.78;100.00;97978.02;1725063;81;21116;-73
2021/01/25 05:56:50;;;;;;;23.20;14.28;;;;;;;3.76;100.00;97964.75;1705374;84;21156;-72
2021/01/25 05:59:18;;;;;;;21.62;12.90;;;;;;;3.76;100.00;97970.19;1693984;83;21823;-72
2021/01/25 06:01:48;;;;;;;21.02;12.60;;;;;;;3.75;100.00;97974.56;1734400;82;21484;-72
2021/01/25 06:04:18;;;;;;;24.45;13.45;;;;;;;3.75;100.00;97981.34;1734488;82;20947;-73
2021/01/25 06:07:05;;;;;;;23.10;13.60;;;;;;;3.74;100.00;97966.98;1734487;81;20946;-73
2021/01/25 06:09:55;;;;;;;23.52;13.55;;;;;;;3.76;100.00;97969.38;1734697;82;20947;-73
2021/01/25 06:12:43;;;;;;;21.85;12.30;;;;;;;3.74;100.00;97961.55;1734692;82;22018;-74
2021/01/25 06:15:24;;;;;;;23.25;12.70;;;;;;;3.72;100.00;97958.89;1705992;82;21006;-72
2021/01/25 06:17:59;;;;;;;19.37;12.13;;;;;;;3.71;100.00;97955.38;1705302;84;20961;-73
2021/01/25 06:20:29;;;;;;;20.27;12.07;;;;;;;3.70;100.00;97971.42;1705337;84;21054;-73
2021/01/25 06:22:56;;;;;;;22.52;13.78;;;;;;;3.70;100.00;97984.98;1705219;84;21044;-73
2021/01/25 06:25:24;;;;;;;30.68;14.13;;;;;;;3.69;100.00;97986.09;1705373;83;22541;-73
2021/01/25 06:27:55;;;;;;;25.52;14.75;;;;;;;3.69;100.00;97994.80;1705205;82;20954;-71
2021/01/25 06:30:25;;;;;;;37.75;22.65;;;;;;;3.67;100.00;97994.30;1705563;84;21108;-73
2021/01/25 06:32:54;;;;;;;35.35;23.25;;;;;;;3.65;100.00;97996.77;1705286;84;20974;-71
2021/01/25 06:35:22;;;;;;;27.77;15.23;;;;;;;3.67;100.00;97991.59;1685549;84;21064;-70
2021/01/25 06:37:54;;;;;;;24.15;13.28;;;;;;;3.66;100.00;97985.36;1705288;82;21421;-71
2021/01/25 06:40:29;;;;;;;26.60;17.30;;;;;;;3.64;100.00;97978.88;1685372;84;20966;-72
2021/01/25 06:42:57;;;;;;;22.27;11.55;;;;;;;3.65;100.00;97981.04;1685806;84;21069;-71
2021/01/25 06:45:25;;;;;;;21.73;14.05;;;;;;;3.63;100.00;97983.26;1705278;84;21500;-72
2021/01/25 06:47:55;;;;;;;21.25;12.45;;;;;;;3.62;100.00;97977.59;1711720;83;21136;-72
2021/01/25 06:50:24;;;;;;;21.52;12.40;;;;;;;3.59;100.00;97972.77;1724306;83;21498;-71
2021/01/25 06:52:52;;;;;;;17.80;11.03;;;;;;;3.59;100.00;97972.77;1724112;82;20978;-72
2021/01/25 06:55:20;;;;;;;19.23;11.57;;;;;;;3.60;100.00;97964.88;1724215;83;20994;-71
2021/01/25 06:57:49;;;;;;;20.65;11.50;;;;;;;3.60;100.00;97960.81;1694092;80;21106;-71
2021/01/25 07:00:19;;;;;;;18.32;11.33;;;;;;;3.59;100.00;97966.79;1764542;79;21158;-73
2021/01/25 07:02:57;;;;;;;21.37;12.43;;;;;;;3.60;100.00;97971.11;1815500;79;21198;-75
2021/01/25 07:05:28;;;;;;;20.35;12.60;;;;;;;3.60;100.00;97971.11;1815244;79;20946;-69
2021/01/25 07:08:26;;;;;;;21.48;12.58;;;;;;;3.59;100.00;97972.22;1815135;78;21487;-71
2021/01/25 07:11:01;;;;;;;19.90;12.00;;;;;;;3.61;100.00;97969.20;1756872;81;21504;-73
2021/01/25 07:13:36;;;;;;;20.48;11.55;;;;;;;3.61;100.00;97970.55;1746805;80;21200;-73
2021/01/25 07:16:04;;;;;;;23.10;11.80;;;;;;;3.61;100.00;97942.86;1693846;83;21380;-73
2021/01/25 07:18:32;;;;;;;19.57;11.63;;;;;;;3.61;100.00;97941.51;1705713;84;21080;-73
2021/01/25 07:21:00;;;;;;;21.73;11.93;;;;;;;3.61;100.00;97937.99;1757349;81;21640;-74
2021/01/25 07:23:28;;;;;;;19.85;12.33;;;;;;;3.61;100.00;97927.94;1723763;81;21132;-73
2021/01/25 07:25:58;;;;;;;20.68;11.70;;;;;;;3.61;100.00;97927.14;1705775;84;21072;-73
2021/01/25 07:28:29;;;;;;;21.77;12.60;;;;;;;3.62;100.00;97928.73;1721614;81;22202;-73
2021/01/25 07:30:58;;;;;;;20.05;11.33;;;;;;;3.64;100.00;97927.87;1734980;82;21676;-71
2021/01/25 07:33:26;;;;;;;21.07;12.40;;;;;;;3.65;100.00;97936.27;1734912;82;21049;-72
2021/01/25 07:35:54;;;;;;;19.82;11.22;;;;;;;3.66;100.00;97932.44;1787348;80;21167;-73
2021/01/25 07:38:24;;;;;;;21.20;11.85;;;;;;;3.69;100.00;97950.81;1786528;80;21202;-71
2021/01/25 07:40:57;;;;;;;20.75;11.33;;;;;;;3.69;100.00;97950.81;1786674;80;21347;-72
2021/01/25 07:43:27;;;;;;;22.25;12.00;;;;;;;3.71;100.00;97950.51;1786518;80;21092;-72
2021/01/25 07:46:07;;;;;;;26.30;12.75;;;;;;;3.72;100.00;97938.54;1786930;80;21489;-72
2021/01/25 07:48:35;;;;;;;22.02;11.83;;;;;;;3.71;100.00;97930.95;1789187;79;21304;-72
2021/01/25 07:51:03;;;;;;;19.27;11.18;;;;;;;3.72;100.00;97917.63;1792151;80;21119;-73
2021/01/25 07:53:34;;;;;;;20.37;12.33;;;;;;;3.76;100.00;97919.17;1792015;80;22341;-74
2021/01/25 07:56:01;;;;;;;20.97;11.63;;;;;;;3.76;100.00;97914.55;1791935;80;20929;-73
2021/01/25 07:58:29;;;;;;;22.22;12.58;;;;;;;3.78;100.00;97907.45;1771200;80;21147;-74
2021/01/25 08:00:56;;;;;;;20.52;11.75;;;;;;;3.80;100.00;97888.94;1766440;80;21167;-72
2021/01/25 08:03:29;;;;;;;23.70;12.63;;;;;;;3.82;100.00;97875.86;1714954;83;21476;-72
2021/01/25 08:06:00;;;;;;;20.75;11.65;;;;;;;3.85;100.00;97895.03;1713725;83;22131;-72
2021/01/25 08:08:27;;;;;;;23.77;12.05;;;;;;;3.88;100.00;97898.48;1712961;83;21668;-74
2021/01/25 08:10:56;;;;;;;22.73;12.50;;;;;;;3.90;100.00;97898.17;1766395;80;21084;-72
2021/01/25 08:13:28;;;;;;;20.95;12.75;;;;;;;3.89;100.00;97909.59;1702060;82;20998;-72
2021/01/25 08:16:31;;;;;;;22.40;12.23;;;;;;;3.90;100.00;97905.76;1711658;83;21124;-73
2021/01/25 08:19:13;;;;;;;24.90;14.83;;;;;;;3.91;100.00;97899.77;1668052;85;21399;-71
2021/01/25 08:21:59;;;;;;;22.10;11.93;;;;;;;3.90;100.00;97896.26;1630754;86;21119;-73
2021/01/25 08:24:26;;;;;;;22.52;11.73;;;;;;;3.91;100.00;97897.86;1629287;88;21642;-74
2021/01/25 08:27:06;;;;;;;20.52;11.48;;;;;;;3.93;100.00;97893.48;1649760;86;21484;-73
2021/01/25 08:29:34;;;;;;;22.32;12.28;;;;;;;3.94;100.00;97897.80;1649273;85;21575;-73
2021/01/25 08:32:12;;;;;;;23.55;11.85;;;;;;;3.95;100.00;97886.62;1676610;85;21299;-73
2021/01/25 08:34:40;;;;;;;23.55;13.25;;;;;;;3.97;100.00;97884.39;1676906;85;21168;-72
2021/01/25 08:37:12;;;;;;;23.30;13.03;;;;;;;3.99;100.00;97881.37;1676750;85;21131;-72
2021/01/25 08:39:44;;;;;;;24.72;12.88;;;;;;;4.00;100.00;97882.17;1677365;85;21157;-72
2021/01/25 08:42:16;;;;;;;26.25;14.45;;;;;;;4.01;100.00;97882.41;1677002;84;21468;-73
2021/01/25 08:45:09;;;;;;;23.77;12.93;;;;;;;4.02;100.00;97877.23;1677315;85;21209;-73
2021/01/25 08:47:37;;;;;;;26.20;13.95;;;;;;;4.03;100.00;97870.69;1677284;84;21670;-73
2021/01/25 08:50:25;;;;;;;25.92;13.98;;;;;;;4.02;100.00;97869.08;1677253;85;20986;-71
2021/01/25 08:53:03;;;;;;;26.95;14.68;;;;;;;4.02;100.00;97863.65;1677062;85;21194;-71
2021/01/25 08:55:41;;;;;;;25.05;14.03;;;;;;;4.04;100.00;97862.22;1677322;85;21238;-71
2021/01/25 08:58:30;;;;;;;28.52;15.08;;;;;;;4.06;100.00;97854.53;1677190;85;21278;-71
2021/01/25 09:00:58;;;;;;;25.27;13.95;;;;;;;4.08;100.00;97856.38;1673607;85;22013;-71
2021/01/25 09:03:26;;;;;;;24.50;14.68;;;;;;;4.13;100.00;97848.65;1676458;85;21108;-71
2021/01/25 09:05:55;;;;;;;27.62;14.80;;;;;;;4.17;100.00;97854.49;1676612;85;21224;-72
2021/01/25 09:08:24;;;;;;;32.78;15.00;;;;;;;4.20;100.00;97847.63;1676411;85;21183;-71
2021/01/25 09:10:53;;;;;;;28.12;15.00;;;;;;;4.22;100.00;97850.28;1676574;85;21139;-72
2021/01/25 09:13:21;;;;;;;27.05;14.80;;;;;;;4.24;100.00;97851.32;1676486;85;21128;-72
2021/01/25 09:15:50;;;;;;;25.75;14.55;;;;;;;4.27;100.00;97847.97;1676776;85;21581;-72
2021/01/25 09:18:18;;;;;;;25.68;14.35;;;;;;;4.31;100.00;97821.22;1663788;85;21670;-72
2021/01/25 09:20:46;;;;;;;32.15;15.23;;;;;;;4.31;100.00;97821.22;1647974;87;21195;-74
2021/01/25 09:23:14;;;;;;;30.50;15.00;;;;;;;4.34;100.00;97820.34;1647942;87;21389;-71
2021/01/25 09:25:41;;;;;;;30.02;15.65;;;;;;;4.36;100.00;97811.33;1659387;86;21211;-71
2021/01/25 09:28:09;;;;;;;27.62;14.87;;;;;;;4.37;100.00;97805.57;1659517;86;21540;-71
2021/01/25 09:30:37;;;;;;;28.80;13.35;;;;;;;4.41;100.00;97803.02;1659402;86;21191;-71
2021/01/25 09:33:04;;;;;;;22.50;12.53;;;;;;;4.47;100.00;97800.39;1659405;86;21136;-69
2021/01/25 09:35:33;;;;;;;26.77;14.33;;;;;;;4.47;100.00;97800.39;1659394;86;21384;-71
2021/01/25 09:38:01;;;;;;;27.40;14.33;;;;;;;4.49;100.00;97792.72;1659410;86;21175;-70
2021/01/25 09:40:33;;;;;;;30.00;14.50;;;;;;;4.53;100.00;97792.33;1659408;86;20977;-71
2021/01/25 09:43:01;;;;;;;26.42;14.00;;;;;;;4.54;100.00;97779.78;1659390;86;21195;-70
2021/01/25 09:45:28;;;;;;;23.83;13.28;;;;;;;4.55;100.00;97768.35;1659459;86;21204;-70
2021/01/25 09:47:58;;;;;;;25.72;12.55;;;;;;;4.55;100.00;97773.79;1659452;86;21833;-70
2021/01/25 09:50:25;;;;;;;25.72;12.88;;;;;;;4.55;100.00;97773.79;1659422;86;21239;-70
2021/01/25 09:52:53;;;;;;;24.15;12.82;;;;;;;4.57;100.00;97756.05;1656337;86;21579;-71
2021/01/25 09:55:20;;;;;;;24.65;12.45;;;;;;;4.60;100.00;97739.09;1648908;86;21139;-72
2021/01/25 09:57:49;;;;;;;24.50;11.88;;;;;;;4.62;100.00;97736.06;1648312;87;21112;-71
2021/01/25 10:00:21;;;;;;;30.88;18.15;;;;;;;4.63;100.00;97728.12;1648184;87;21418;-71
2021/01/25 10:02:48;;;;;;;45.43;25.30;;;;;;;4.65;100.00;97738.11;1648084;87;21221;-71
2021/01/25 10:05:17;;;;;;;38.83;21.97;;;;;;;4.65;100.00;97734.03;1648251;87;21103;-71
2021/01/25 10:07:46;;;;;;;26.00;14.00;;;;;;;4.62;100.00;97724.59;1648372;87;21147;-72
2021/01/25 10:10:16;;;;;;;24.75;13.15;;;;;;;4.63;100.00;97717.25;1648222;87;21170;-72
2021/01/25 10:12:43;;;;;;;26.87;13.88;;;;;;;4.64;100.00;97716.92;1648421;87;22277;-71
2021/01/25 10:15:14;;;;;;;24.87;12.50;;;;;;;4.64;100.00;97716.92;1648054;86;21171;-70
2021/01/25 10:17:42;;;;;;;28.98;12.40;;;;;;;4.69;100.00;97716.52;1649872;86;21111;-71
2021/01/25 10:20:11;;;;;;;25.52;12.35;;;;;;;4.68;100.00;97704.05;1653250;86;21526;-72
2021/01/25 10:22:39;;;;;;;23.98;11.83;;;;;;;4.68;100.00;97704.05;1653320;85;21095;-71
2021/01/25 10:25:09;;;;;;;27.10;13.40;;;;;;;4.64;100.00;97698.45;1653382;86;21406;-70
2021/01/25 10:27:38;;;;;;;26.87;11.57;;;;;;;4.61;100.00;97687.70;1653386;86;21219;-73
2021/01/25 10:30:09;;;;;;;26.77;11.60;;;;;;;4.64;100.00;97687.59;1653228;86;21127;-74
2021/01/25 10:32:36;;;;;;;19.27;10.32;;;;;;;4.61;100.00;97684.19;1653076;85;21108;-72
2021/01/25 10:35:07;;;;;;;20.17;10.63;;;;;;;4.59;100.00;97659.25;1653340;86;21052;-73
2021/01/25 10:37:35;;;;;;;21.57;10.88;;;;;;;4.59;100.00;97659.25;1679402;85;21228;-72
2021/01/25 10:40:05;;;;;;;20.48;9.88;;;;;;;4.59;100.00;97657.89;1679316;85;21135;-72
2021/01/25 10:42:32;;;;;;;22.20;9.95;;;;;;;4.59;100.00;97657.89;1679451;85;21162;-70
2021/01/25 10:44:59;;;;;;;18.32;10.28;;;;;;;4.58;100.00;97651.66;1679428;85;21195;-71
2021/01/25 10:47:27;;;;;;;19.90;10.63;;;;;;;4.59;100.00;97651.09;1679404;85;21493;-86
2021/01/25 10:49:54;;;;;;;21.95;10.48;;;;;;;4.60;100.00;97648.61;1653304;86;21461;-76
2021/01/25 10:52:22;;;;;;;24.37;11.00;;;;;;;4.60;100.00;97648.05;1655883;85;21220;-74
2021/01/25 10:54:49;;;;;;;21.80;10.08;;;;;;;4.60;100.00;97651.33;1679505;85;21021;-77
2021/01/25 10:57:17;;;;;;;20.70;10.45;;;;;;;4.59;100.00;97642.94;1679366;85;21060;-77
2021/01/25 10:59:46;;;;;;;26.33;10.55;;;;;;;4.59;100.00;97642.94;1653536;85;21037;-77
2021/01/25 11:02:14;;;;;;;23.22;10.30;;;;;;;4.59;100.00;97646.45;1679223;85;21415;-77
2021/01/25 11:04:42;;;;;;;21.70;10.18;;;;;;;4.58;100.00;97635.91;1679489;85;21171;-77
2021/01/25 11:07:09;;;;;;;19.07;9.40;;;;;;;4.57;100.00;97624.24;1679623;85;21113;-76
2021/01/25 11:09:36;;;;;;;20.02;9.78;;;;;;;4.55;100.00;97624.33;1679514;85;21536;-76
2021/01/25 11:12:05;;;;;;;20.60;10.00;;;;;;;4.55;100.00;97620.25;1679530;85;21108;-75
2021/01/25 11:14:32;;;;;;;21.45;11.12;;;;;;;4.55;100.00;97614.26;1679565;85;21808;-77
2021/01/25 11:16:59;;;;;;;30.17;13.83;;;;;;;4.54;100.00;97607.78;1679466;85;20958;-77
2021/01/25 11:19:27;;;;;;;18.75;11.45;;;;;;;4.53;100.00;97600.75;1674067;85;21049;-74
2021/01/25 11:21:54;;;;;;;19.15;10.75;;;;;;;4.53;100.00;97600.75;1673403;85;21144;-75
2021/01/25 11:24:23;;;;;;;21.37;9.63;;;;;;;4.52;100.00;97601.31;1629631;88;21246;-75
2021/01/25 11:26:53;;;;;;;22.35;10.60;;;;;;;4.54;100.00;97595.56;1626772;88;21207;-74